Time;durP1;ratioP1;P1;durP2;ratioP2;P2;SDS_P1;SDS_P2;PMS_P1;PMS_P2;Temp;Humidity;BMP_temperature;BMP_pressure;BME280_temperature;BME280_humidity;BME280_pressure;Samples;Min_cycle;Max_cycle;Signal;HPM_P1;HPM_P2
2023/10/30 00:01:45;;;;;;;4.63;1.50;;;10.10;99.90;;;;;;5034105;28;20033;-79
2023/10/30 00:04:11;;;;;;;6.45;1.20;;;10.00;99.90;;;;;;5032965;28;20037;-79
2023/10/30 00:06:36;;;;;;;3.75;1.02;;;10.00;99.90;;;;;;5033151;28;20030;-79
2023/10/30 00:09:02;;;;;;;8.07;1.02;;;10.00;99.90;;;;;;5032869;28;20036;-79
2023/10/30 00:11:28;;;;;;;4.70;1.10;;;10.00;99.90;;;;;;5035736;28;20103;-79
2023/10/30 00:13:53;;;;;;;5.78;0.98;;;10.00;99.90;;;;;;5035079;28;20041;-80
2023/10/30 00:16:20;;;;;;;6.88;1.95;;;9.90;99.90;;;;;;5033440;28;20091;-79
2023/10/30 00:18:46;;;;;;;4.60;0.90;;;9.90;99.90;;;;;;5034229;28;20033;-80
2023/10/30 00:21:11;;;;;;;4.43;1.00;;;9.90;99.90;;;;;;5033683;28;20120;-80
2023/10/30 00:23:37;;;;;;;2.67;0.88;;;9.80;99.90;;;;;;5033965;28;20064;-80
2023/10/30 00:26:03;;;;;;;4.10;1.13;;;9.80;99.90;;;;;;5032757;28;20094;-79
2023/10/30 00:28:30;;;;;;;6.00;1.05;;;9.80;99.90;;;;;;5033069;28;20120;-79
2023/10/30 00:30:56;;;;;;;4.72;1.35;;;9.80;99.90;;;;;;5017702;28;20045;-80
2023/10/30 00:33:22;;;;;;;5.63;0.98;;;9.80;99.90;;;;;;5034606;28;20113;-80
2023/10/30 00:35:47;;;;;;;4.10;0.88;;;9.80;99.90;;;;;;5017994;28;20074;-81
2023/10/30 00:38:13;;;;;;;3.88;0.90;;;9.80;99.90;;;;;;5018184;28;20034;-79
2023/10/30 00:40:38;;;;;;;4.80;0.82;;;9.70;99.90;;;;;;5034547;28;20033;-80
2023/10/30 00:43:04;;;;;;;6.82;0.95;;;9.70;99.90;;;;;;5036163;28;20033;-80
2023/10/30 00:45:30;;;;;;;2.75;0.77;;;9.70;99.90;;;;;;5035485;28;20080;-80
2023/10/30 00:47:56;;;;;;;4.10;0.95;;;9.60;99.90;;;;;;5035906;28;20049;-80
2023/10/30 00:50:21;;;;;;;3.50;1.05;;;9.70;99.90;;;;;;5034337;28;20044;-78
2023/10/30 00:52:47;;;;;;;3.72;0.93;;;9.60;99.90;;;;;;5035906;28;20493;-80
2023/10/30 00:55:13;;;;;;;2.58;0.70;;;9.60;99.90;;;;;;5034361;28;20053;-80
2023/10/30 00:57:39;;;;;;;2.10;0.65;;;9.60;99.90;;;;;;5033727;28;20037;-79
2023/10/30 01:00:05;;;;;;;5.75;1.02;;;9.60;99.90;;;;;;5033678;28;20086;-79
2023/10/30 01:02:31;;;;;;;3.20;1.05;;;9.60;99.90;;;;;;5034138;28;20033;-80
2023/10/30 01:04:57;;;;;;;3.42;0.80;;;9.50;99.90;;;;;;5033745;28;20405;-79
2023/10/30 01:07:23;;;;;;;3.20;0.70;;;9.60;99.90;;;;;;5032937;28;20159;-79
2023/10/30 01:09:49;;;;;;;4.82;0.80;;;9.50;99.90;;;;;;5032971;28;20564;-79
2023/10/30 01:12:14;;;;;;;4.28;0.70;;;9.50;99.90;;;;;;5033560;28;20140;-79
2023/10/30 01:14:40;;;;;;;1.48;0.63;;;9.50;99.90;;;;;;5033767;28;20117;-79
2023/10/30 01:17:06;;;;;;;5.72;0.73;;;9.50;99.90;;;;;;5033631;28;20412;-80
2023/10/30 01:19:31;;;;;;;5.10;0.70;;;9.50;99.90;;;;;;5033595;28;20063;-80
2023/10/30 01:21:56;;;;;;;2.15;0.55;;;9.50;99.90;;;;;;5031535;28;20048;-79
2023/10/30 01:24:22;;;;;;;5.20;1.30;;;9.50;99.90;;;;;;5033242;28;20044;-80
2023/10/30 01:26:47;;;;;;;2.67;0.75;;;9.50;99.90;;;;;;5033881;28;20455;-79
2023/10/30 01:29:13;;;;;;;3.17;0.85;;;9.50;99.90;;;;;;5032802;28;20493;-79
2023/10/30 01:31:39;;;;;;;4.90;1.00;;;9.50;99.90;;;;;;5015739;28;20073;-79
2023/10/30 01:34:05;;;;;;;4.55;1.15;;;9.50;99.90;;;;;;5032036;28;20037;-80
2023/10/30 01:36:31;;;;;;;2.58;0.82;;;9.50;99.90;;;;;;5033620;28;20041;-79
2023/10/30 01:38:58;;;;;;;5.57;1.02;;;9.50;99.90;;;;;;5033599;28;20044;-80
2023/10/30 01:41:23;;;;;;;3.45;0.85;;;9.50;99.90;;;;;;5017009;28;20038;-79
2023/10/30 01:43:49;;;;;;;3.10;1.05;;;9.40;99.90;;;;;;5032329;28;20033;-80
2023/10/30 01:46:15;;;;;;;3.03;1.02;;;9.50;99.90;;;;;;5032696;28;20037;-79
2023/10/30 01:48:41;;;;;;;3.45;1.02;;;9.50;99.90;;;;;;5032257;28;20100;-80
2023/10/30 01:51:07;;;;;;;4.45;1.10;;;9.40;99.90;;;;;;5032654;28;20713;-80
2023/10/30 01:53:34;;;;;;;3.60;1.08;;;9.40;99.90;;;;;;5017185;28;20041;-80
2023/10/30 01:56:03;;;;;;;6.60;1.20;;;9.40;99.90;;;;;;5031754;28;20129;-80
2023/10/30 01:58:29;;;;;;;6.38;1.20;;;9.40;99.90;;;;;;5024948;28;20034;-80
2023/10/30 02:00:57;;;;;;;4.63;1.30;;;9.30;99.90;;;;;;5015861;28;20053;-79
2023/10/30 02:03:22;;;;;;;5.35;1.30;;;9.30;99.90;;;;;;5033764;28;20038;-79
2023/10/30 02:05:49;;;;;;;4.00;1.35;;;9.30;99.90;;;;;;5017655;28;20033;-79
2023/10/30 02:08:16;;;;;;;2.72;1.30;;;9.30;99.90;;;;;;5033049;28;20048;-80
2023/10/30 02:10:42;;;;;;;3.65;1.33;;;9.30;99.90;;;;;;5034630;28;20051;-79
2023/10/30 02:13:08;;;;;;;3.53;1.25;;;9.30;99.90;;;;;;5016709;28;20108;-80
2023/10/30 02:15:34;;;;;;;5.63;1.42;;;9.30;99.90;;;;;;5033226;28;20120;-80
2023/10/30 02:17:59;;;;;;;6.07;1.80;;;9.30;99.90;;;;;;5033580;28;20029;-79
2023/10/30 02:20:25;;;;;;;3.35;1.10;;;9.30;99.90;;;;;;5031568;28;20037;-80
2023/10/30 02:22:51;;;;;;;6.43;1.55;;;9.30;99.90;;;;;;5031226;28;20039;-79
2023/10/30 02:25:22;;;;;;;3.13;1.52;;;9.30;99.90;;;;;;5032924;28;20037;-79
2023/10/30 02:27:49;;;;;;;4.10;1.50;;;9.30;99.90;;;;;;5031293;28;20497;-78
2023/10/30 02:30:14;;;;;;;5.65;1.40;;;9.30;99.90;;;;;;5033018;28;20075;-79
2023/10/30 02:32:44;;;;;;;6.55;2.00;;;9.30;99.90;;;;;;5031667;28;20112;-79
2023/10/30 02:35:16;;;;;;;5.78;1.52;;;9.30;99.90;;;;;;5030797;28;20041;-79
2023/10/30 02:37:43;;;;;;;6.57;1.30;;;9.30;99.90;;;;;;5031541;28;20045;-80
2023/10/30 02:40:09;;;;;;;5.03;1.83;;;9.30;99.90;;;;;;5032099;28;20037;-79
2023/10/30 02:42:35;;;;;;;4.43;1.77;;;9.20;99.90;;;;;;5032069;28;20041;-79
2023/10/30 02:45:03;;;;;;;7.57;1.58;;;9.20;99.90;;;;;;5014374;28;20501;-78
2023/10/30 02:47:29;;;;;;;8.25;1.52;;;9.30;99.90;;;;;;5025582;28;20065;-78
2023/10/30 02:49:55;;;;;;;4.53;2.03;;;9.30;99.90;;;;;;5014195;28;20041;-79
2023/10/30 02:52:20;;;;;;;6.35;1.60;;;9.30;99.90;;;;;;5033253;28;20523;-79
2023/10/30 02:54:46;;;;;;;4.82;1.35;;;9.30;99.90;;;;;;5031518;28;20049;-80
2023/10/30 02:57:13;;;;;;;4.45;1.63;;;9.30;99.90;;;;;;5031521;28;20076;-78
2023/10/30 02:59:39;;;;;;;5.38;1.83;;;9.40;99.90;;;;;;5032500;28;20132;-80
2023/10/30 03:02:04;;;;;;;6.18;1.63;;;9.40;99.90;;;;;;5037136;28;20049;-80
2023/10/30 03:04:30;;;;;;;7.57;1.67;;;9.40;99.90;;;;;;5037625;28;20033;-79
2023/10/30 03:06:58;;;;;;;5.82;1.60;;;9.50;99.90;;;;;;5039230;28;20033;-80
2023/10/30 03:09:32;;;;;;;6.60;1.73;;;9.40;99.90;;;;;;5035960;28;20037;-80
2023/10/30 03:11:57;;;;;;;4.80;1.80;;;9.40;99.90;;;;;;5037746;28;20501;-81
2023/10/30 03:14:24;;;;;;;5.85;1.95;;;9.50;99.90;;;;;;5036143;28;20041;-80
2023/10/30 03:16:50;;;;;;;4.53;1.88;;;9.50;99.90;;;;;;5030565;28;20065;-80
2023/10/30 03:19:16;;;;;;;7.97;1.67;;;9.50;99.90;;;;;;5035856;28;20072;-80
2023/10/30 03:21:42;;;;;;;8.48;1.60;;;9.50;99.90;;;;;;5034994;28;20041;-79
2023/10/30 03:24:07;;;;;;;7.25;1.55;;;9.50;99.90;;;;;;5035204;28;20033;-78
2023/10/30 03:26:33;;;;;;;6.15;1.67;;;9.50;99.90;;;;;;5034723;28;20034;-79
2023/10/30 03:28:59;;;;;;;8.73;1.73;;;9.50;99.90;;;;;;5018279;28;20401;-79
2023/10/30 03:31:24;;;;;;;8.20;2.15;;;9.50;99.90;;;;;;5035581;28;20051;-79
2023/10/30 03:33:50;;;;;;;7.13;1.45;;;9.40;99.90;;;;;;5036918;28;20080;-80
2023/10/30 03:36:23;;;;;;;4.40;1.70;;;9.40;99.90;;;;;;5037118;28;20049;-79
2023/10/30 03:38:50;;;;;;;6.88;1.73;;;9.40;99.90;;;;;;5034927;28;20515;-79
2023/10/30 03:41:17;;;;;;;8.00;1.70;;;9.40;99.90;;;;;;5019501;28;20087;-80
2023/10/30 03:43:43;;;;;;;7.90;2.75;;;9.30;99.90;;;;;;5035588;28;20207;-78
2023/10/30 03:46:08;;;;;;;10.02;1.70;;;9.30;99.90;;;;;;5036303;28;20072;-79
2023/10/30 03:48:34;;;;;;;6.30;1.50;;;9.30;99.90;;;;;;5037653;28;20124;-80
2023/10/30 03:50:59;;;;;;;7.70;1.42;;;9.30;99.90;;;;;;5038397;28;20041;-80
2023/10/30 03:53:25;;;;;;;7.30;1.60;;;9.30;99.90;;;;;;5036249;28;20116;-79
2023/10/30 03:55:50;;;;;;;6.40;1.63;;;9.20;99.90;;;;;;5034345;28;20501;-79
2023/10/30 03:58:16;;;;;;;4.75;1.52;;;9.20;99.90;;;;;;5033986;28;20152;-78
2023/10/30 04:00:41;;;;;;;7.53;1.55;;;9.20;99.90;;;;;;5034498;28;20487;-80
2023/10/30 04:03:08;;;;;;;8.20;1.80;;;9.20;99.90;;;;;;5034785;28;20479;-79
2023/10/30 04:05:33;;;;;;;7.03;1.88;;;9.20;99.90;;;;;;5033908;28;20068;-79
2023/10/30 04:07:59;;;;;;;9.85;1.90;;;9.20;99.90;;;;;;5034721;28;20037;-79
2023/10/30 04:10:25;;;;;;;7.15;1.88;;;9.30;99.90;;;;;;5033905;28;20037;-79
2023/10/30 04:12:50;;;;;;;6.75;1.55;;;9.30;99.90;;;;;;5034668;28;20041;-79
2023/10/30 04:15:18;;;;;;;10.65;1.98;;;9.30;99.90;;;;;;5033375;28;20463;-79
2023/10/30 04:17:46;;;;;;;7.25;2.30;;;9.30;99.90;;;;;;5033971;28;20033;-79
2023/10/30 04:20:12;;;;;;;8.35;1.58;;;9.30;99.90;;;;;;5032939;28;20061;-78
2023/10/30 04:22:37;;;;;;;8.52;1.95;;;9.30;99.90;;;;;;5016621;28;20083;-78
2023/10/30 04:25:06;;;;;;;10.18;2.20;;;9.30;99.90;;;;;;5033419;28;20045;-79
2023/10/30 04:27:31;;;;;;;8.65;1.80;;;9.30;99.90;;;;;;5033115;28;20064;-78
2023/10/30 04:29:57;;;;;;;8.48;1.52;;;9.30;99.90;;;;;;5016563;28;20041;-80
2023/10/30 04:32:22;;;;;;;7.95;1.40;;;9.30;99.90;;;;;;5032717;28;20048;-79
2023/10/30 04:34:48;;;;;;;7.82;1.80;;;9.30;99.90;;;;;;5016936;28;20052;-78
2023/10/30 04:37:13;;;;;;;9.45;2.05;;;9.30;99.90;;;;;;5032798;28;20042;-79
2023/10/30 04:39:40;;;;;;;10.68;1.77;;;9.30;99.90;;;;;;5032323;28;20513;-79
2023/10/30 04:42:06;;;;;;;8.18;1.58;;;9.30;99.90;;;;;;5033272;28;20073;-80
2023/10/30 04:44:31;;;;;;;6.55;2.20;;;9.40;99.90;;;;;;5034148;28;20048;-79
2023/10/30 04:46:56;;;;;;;7.38;1.63;;;9.30;99.90;;;;;;5033743;28;20112;-79
2023/10/30 04:49:22;;;;;;;5.88;1.50;;;9.40;99.90;;;;;;5032768;28;20041;-78
2023/10/30 04:51:48;;;;;;;9.60;2.17;;;9.30;99.90;;;;;;5032985;28;20497;-79
2023/10/30 04:54:13;;;;;;;5.78;1.63;;;9.40;99.90;;;;;;5031751;28;20497;-77
2023/10/30 04:56:39;;;;;;;11.50;1.40;;;9.40;99.90;;;;;;5030952;28;20100;-78
2023/10/30 04:59:04;;;;;;;6.93;1.60;;;9.40;99.90;;;;;;5031926;28;20030;-79
2023/10/30 05:01:30;;;;;;;7.30;1.60;;;9.40;99.90;;;;;;5032627;28;20112;-78
2023/10/30 05:03:56;;;;;;;7.15;1.77;;;9.30;99.90;;;;;;5032728;28;20049;-78
2023/10/30 05:06:22;;;;;;;7.45;1.40;;;9.30;99.90;;;;;;5033157;28;20059;-79
2023/10/30 05:08:47;;;;;;;6.13;1.42;;;9.30;99.90;;;;;;5034146;28;20037;-79
2023/10/30 05:11:13;;;;;;;9.93;1.88;;;9.30;99.90;;;;;;5034432;28;20059;-79
2023/10/30 05:13:38;;;;;;;8.80;1.50;;;9.20;99.90;;;;;;5033183;28;20519;-79
2023/10/30 05:16:04;;;;;;;8.93;1.73;;;9.20;99.90;;;;;;5033583;28;20070;-80
2023/10/30 05:18:31;;;;;;;8.13;1.83;;;9.10;99.90;;;;;;5033612;28;20032;-79
2023/10/30 05:20:56;;;;;;;9.73;1.80;;;9.10;99.90;;;;;;5033607;28;20033;-79
2023/10/30 05:23:22;;;;;;;6.40;1.50;;;9.10;99.90;;;;;;5034090;28;20045;-80
2023/10/30 05:25:47;;;;;;;11.07;1.80;;;9.10;99.90;;;;;;5034060;28;20069;-80
2023/10/30 05:28:13;;;;;;;9.48;1.73;;;9.10;99.90;;;;;;5033896;28;20504;-79
2023/10/30 05:30:38;;;;;;;7.10;1.30;;;9.10;99.90;;;;;;5033748;28;20037;-79
2023/10/30 05:33:04;;;;;;;8.68;2.30;;;9.10;99.90;;;;;;5033673;28;20531;-80
2023/10/30 05:35:30;;;;;;;6.85;1.83;;;9.00;99.90;;;;;;5017839;28;20389;-80
2023/10/30 05:37:56;;;;;;;7.82;1.92;;;9.00;99.90;;;;;;5033782;28;20049;-79
2023/10/30 05:40:22;;;;;;;10.20;1.42;;;9.00;99.90;;;;;;5033569;28;20201;-79
2023/10/30 05:42:48;;;;;;;6.00;1.48;;;9.00;99.90;;;;;;5032507;28;20100;-79
2023/10/30 05:45:13;;;;;;;5.05;1.08;;;9.00;99.90;;;;;;5034365;28;20091;-79
2023/10/30 05:47:39;;;;;;;10.07;1.80;;;9.00;99.90;;;;;;5033117;28;20041;-79
2023/10/30 05:50:05;;;;;;;7.30;1.70;;;9.00;99.90;;;;;;5032740;28;20064;-79
2023/10/30 05:52:31;;;;;;;9.15;1.58;;;9.00;99.90;;;;;;5019343;28;20517;-79
2023/10/30 05:54:56;;;;;;;8.73;2.00;;;9.00;99.90;;;;;;5034784;28;20091;-79
2023/10/30 05:57:22;;;;;;;10.55;1.60;;;9.00;99.90;;;;;;5033039;28;20124;-80
2023/10/30 05:59:47;;;;;;;7.07;1.40;;;9.00;99.90;;;;;;5033659;28;20382;-80
2023/10/30 06:02:15;;;;;;;8.82;1.95;;;9.00;99.90;;;;;;5032892;28;20048;-80
2023/10/30 06:04:40;;;;;;;6.68;1.70;;;8.90;99.90;;;;;;5032957;28;20075;-80
2023/10/30 06:07:06;;;;;;;8.02;1.60;;;8.90;99.90;;;;;;5034937;28;20487;-80
2023/10/30 06:09:32;;;;;;;8.27;1.40;;;8.90;99.90;;;;;;5035624;28;20174;-80
2023/10/30 06:11:57;;;;;;;5.95;1.30;;;8.80;99.90;;;;;;5033939;28;20041;-80
2023/10/30 06:14:23;;;;;;;7.35;1.55;;;8.80;99.90;;;;;;5034344;28;20124;-80
2023/10/30 06:16:48;;;;;;;8.05;2.00;;;8.80;99.90;;;;;;5034086;28;20052;-80
2023/10/30 06:19:14;;;;;;;10.07;1.67;;;8.80;99.90;;;;;;5035475;28;20124;-80
2023/10/30 06:21:39;;;;;;;5.90;1.25;;;8.70;99.90;;;;;;5033252;28;20080;-80
2023/10/30 06:24:08;;;;;;;8.82;1.50;;;8.70;99.90;;;;;;5036126;28;20130;-80
2023/10/30 06:26:34;;;;;;;5.63;1.83;;;8.80;99.90;;;;;;5035117;28;20037;-80
2023/10/30 06:29:00;;;;;;;7.30;2.03;;;8.70;99.90;;;;;;5017725;28;20045;-80
2023/10/30 06:31:26;;;;;;;8.07;1.70;;;8.70;99.90;;;;;;5025146;28;20406;-80
2023/10/30 06:33:52;;;;;;;7.70;2.15;;;8.80;99.90;;;;;;5018183;28;20037;-80
2023/10/30 06:36:17;;;;;;;8.43;1.50;;;8.80;99.90;;;;;;5039076;28;20111;-79
2023/10/30 06:38:43;;;;;;;7.68;1.80;;;8.80;99.90;;;;;;5037343;28;20444;-80
2023/10/30 06:41:08;;;;;;;11.50;2.65;;;8.80;99.90;;;;;;5036850;28;20045;-80
2023/10/30 06:43:34;;;;;;;9.65;2.13;;;8.90;99.90;;;;;;5031081;28;20034;-79
2023/10/30 06:46:01;;;;;;;5.45;2.00;;;8.90;99.90;;;;;;5037997;28;20505;-79
2023/10/30 06:48:27;;;;;;;10.88;1.80;;;8.90;99.90;;;;;;5038653;28;20047;-79
2023/10/30 06:50:52;;;;;;;5.20;1.42;;;8.90;99.90;;;;;;5020274;28;20408;-80
2023/10/30 06:53:18;;;;;;;10.52;2.10;;;9.00;99.90;;;;;;5038322;28;20087;-79
2023/10/30 06:55:43;;;;;;;6.50;1.52;;;9.00;99.90;;;;;;5037431;28;20037;-79
2023/10/30 06:58:09;;;;;;;7.32;1.70;;;9.10;99.90;;;;;;5038505;28;20389;-80
2023/10/30 07:00:35;;;;;;;9.00;1.83;;;9.10;99.90;;;;;;5035991;28;20082;-79
2023/10/30 07:03:01;;;;;;;9.80;2.10;;;9.10;99.90;;;;;;5038599;28;20033;-79
2023/10/30 07:05:27;;;;;;;12.77;3.03;;;9.20;99.90;;;;;;5038289;28;20053;-79
2023/10/30 07:07:52;;;;;;;9.13;1.90;;;9.20;99.90;;;;;;5037800;28;20148;-79
2023/10/30 07:10:18;;;;;;;10.23;2.00;;;9.30;99.90;;;;;;5035874;28;20071;-79
2023/10/30 07:12:43;;;;;;;13.23;2.10;;;9.30;99.90;;;;;;5031809;28;20209;-80
2023/10/30 07:15:10;;;;;;;9.90;1.85;;;9.40;99.90;;;;;;5036600;28;20075;-79
2023/10/30 07:17:35;;;;;;;7.60;1.92;;;9.40;99.90;;;;;;5037831;28;20041;-80
2023/10/30 07:20:02;;;;;;;12.43;2.08;;;9.50;99.90;;;;;;5036234;28;20041;-79
2023/10/30 07:22:28;;;;;;;11.75;1.83;;;9.50;99.90;;;;;;5020424;28;20029;-79
2023/10/30 07:24:54;;;;;;;10.02;2.25;;;9.60;99.90;;;;;;5036420;28;20413;-81
2023/10/30 07:27:19;;;;;;;8.05;1.90;;;9.60;99.90;;;;;;5037976;28;20041;-79
2023/10/30 07:29:45;;;;;;;10.80;2.10;;;9.70;99.90;;;;;;5036412;28;20052;-79
2023/10/30 07:32:10;;;;;;;11.27;2.05;;;9.80;99.90;;;;;;5037986;28;20042;-79
2023/10/30 07:34:36;;;;;;;11.10;2.13;;;9.90;99.90;;;;;;5035427;28;20074;-79
2023/10/30 07:37:01;;;;;;;12.30;2.10;;;9.90;99.90;;;;;;5035028;28;20052;-79
2023/10/30 07:39:27;;;;;;;9.68;2.20;;;10.00;99.90;;;;;;5034063;28;20048;-79
2023/10/30 07:41:52;;;;;;;10.23;1.88;;;10.10;99.90;;;;;;5035733;28;20571;-78
2023/10/30 07:44:18;;;;;;;11.93;2.30;;;10.10;99.90;;;;;;5033223;28;20536;-78
2023/10/30 07:46:43;;;;;;;7.88;1.90;;;10.20;99.90;;;;;;5033627;28;20037;-79
2023/10/30 07:49:09;;;;;;;10.20;1.98;;;10.30;99.90;;;;;;5035023;28;20049;-78
2023/10/30 07:51:35;;;;;;;8.07;1.70;;;10.40;99.90;;;;;;5033133;28;20095;-78
2023/10/30 07:54:00;;;;;;;12.27;2.92;;;10.40;99.90;;;;;;5034988;28;20311;-79
2023/10/30 07:56:26;;;;;;;10.35;2.13;;;10.50;99.90;;;;;;5036006;28;20409;-79
2023/10/30 07:58:51;;;;;;;11.10;2.08;;;10.60;99.90;;;;;;5036199;28;20042;-79
2023/10/30 08:01:20;;;;;;;9.70;2.08;;;10.60;99.90;;;;;;5037236;28;20033;-79
2023/10/30 08:03:46;;;;;;;13.95;2.47;;;10.70;99.90;;;;;;5040322;28;20560;-80
2023/10/30 08:06:12;;;;;;;10.73;2.10;;;10.80;99.90;;;;;;5039899;28;20041;-79
2023/10/30 08:08:38;;;;;;;9.20;1.98;;;10.80;99.90;;;;;;5039147;28;20504;-79
2023/10/30 08:11:04;;;;;;;12.25;1.88;;;10.90;99.90;;;;;;5036383;28;20071;-80
2023/10/30 08:13:29;;;;;;;12.40;1.92;;;10.90;99.90;;;;;;5037172;28;20048;-79
2023/10/30 08:15:55;;;;;;;6.70;1.80;;;10.90;99.90;;;;;;5035006;28;20046;-79
2023/10/30 08:18:21;;;;;;;8.95;2.42;;;11.00;99.90;;;;;;5035189;28;20320;-78
2023/10/30 08:20:46;;;;;;;8.48;2.10;;;11.00;99.90;;;;;;5035352;28;20044;-78
2023/10/30 08:23:12;;;;;;;9.95;2.10;;;11.00;99.90;;;;;;5036355;28;20487;-79
2023/10/30 08:25:38;;;;;;;9.27;1.55;;;11.00;99.90;;;;;;5035778;28;20041;-79
2023/10/30 08:28:03;;;;;;;8.45;1.75;;;11.10;99.90;;;;;;5018271;28;20045;-78
2023/10/30 08:30:29;;;;;;;9.48;1.77;;;11.10;99.90;;;;;;5031843;28;20406;-78
2023/10/30 08:32:56;;;;;;;8.02;1.55;;;11.10;99.90;;;;;;5032401;28;20072;-78
2023/10/30 08:35:22;;;;;;;7.55;1.83;;;11.10;99.90;;;;;;5033443;28;20520;-78
2023/10/30 08:37:48;;;;;;;7.57;1.55;;;11.20;99.90;;;;;;5033601;28;20093;-78
2023/10/30 08:40:13;;;;;;;5.07;1.55;;;11.20;99.90;;;;;;5034272;28;20134;-79
2023/10/30 08:42:39;;;;;;;8.85;1.90;;;11.30;99.90;;;;;;5033222;28;20099;-79
2023/10/30 08:45:07;;;;;;;10.77;1.90;;;11.40;99.90;;;;;;5033307;28;20048;-78
2023/10/30 08:47:32;;;;;;;11.63;1.92;;;11.40;99.90;;;;;;5025300;28;20046;-78
2023/10/30 08:49:58;;;;;;;7.80;1.88;;;11.40;99.90;;;;;;5031931;28;20519;-77
2023/10/30 08:52:23;;;;;;;9.60;2.05;;;11.50;99.90;;;;;;5033876;28;20033;-79
2023/10/30 08:54:49;;;;;;;9.80;2.30;;;11.60;99.90;;;;;;5035845;28;20048;-79
2023/10/30 08:57:19;;;;;;;10.48;2.10;;;11.60;99.90;;;;;;5032352;28;20041;-78
2023/10/30 08:59:44;;;;;;;8.85;2.25;;;11.60;99.90;;;;;;5025924;28;20034;-79
2023/10/30 09:02:10;;;;;;;7.75;1.58;;;11.70;99.90;;;;;;5034752;28;20048;-79
2023/10/30 09:04:36;;;;;;;11.32;2.20;;;11.80;99.90;;;;;;5035087;28;20037;-78
2023/10/30 09:07:02;;;;;;;9.10;2.00;;;11.80;99.90;;;;;;5033843;28;20142;-79
2023/10/30 09:09:27;;;;;;;6.53;1.83;;;11.90;99.90;;;;;;5037403;28;20456;-79
2023/10/30 09:11:53;;;;;;;8.98;1.80;;;11.90;99.90;;;;;;5036341;28;20084;-79
2023/10/30 09:14:19;;;;;;;6.70;1.88;;;12.00;99.90;;;;;;5035941;28;20048;-79
2023/10/30 09:16:45;;;;;;;8.48;1.83;;;12.00;99.90;;;;;;5038315;28;20044;-79
2023/10/30 09:19:10;;;;;;;8.93;1.95;;;11.90;99.90;;;;;;5034415;28;20049;-78
2023/10/30 09:21:36;;;;;;;10.02;2.70;;;12.00;99.90;;;;;;5034623;28;20116;-79
2023/10/30 09:24:02;;;;;;;8.73;2.03;;;12.00;99.90;;;;;;5035763;28;20038;-79
2023/10/30 09:26:28;;;;;;;13.38;2.40;;;12.00;99.90;;;;;;5036529;28;20037;-78
2023/10/30 09:28:54;;;;;;;8.30;2.08;;;12.10;99.90;;;;;;5038333;28;20087;-79
2023/10/30 09:31:20;;;;;;;9.98;2.20;;;12.10;99.90;;;;;;5035484;28;20044;-78
2023/10/30 09:33:46;;;;;;;9.52;1.90;;;12.20;99.90;;;;;;5032516;28;20037;-78
2023/10/30 09:36:11;;;;;;;10.93;2.03;;;12.20;99.90;;;;;;5033239;28;20033;-78
2023/10/30 09:38:37;;;;;;;11.45;2.00;;;12.20;99.90;;;;;;5017042;28;20091;-78
2023/10/30 09:41:04;;;;;;;8.73;1.67;;;12.10;99.90;;;;;;5032183;28;20049;-79
2023/10/30 09:43:30;;;;;;;7.88;1.75;;;12.20;99.90;;;;;;5033098;28;20069;-79
2023/10/30 09:46:00;;;;;;;9.00;2.67;;;12.20;99.90;;;;;;5033024;28;20051;-79
2023/10/30 09:48:27;;;;;;;10.00;1.77;;;12.30;99.90;;;;;;5019749;28;20041;-78
2023/10/30 09:50:54;;;;;;;13.13;2.20;;;12.40;99.90;;;;;;5033232;28;20428;-79
2023/10/30 09:53:20;;;;;;;9.38;2.00;;;12.50;99.90;;;;;;5032598;28;20041;-80
2023/10/30 09:55:47;;;;;;;10.30;2.30;;;12.60;99.90;;;;;;5033927;28;20056;-78
2023/10/30 09:58:13;;;;;;;13.00;1.77;;;12.60;99.90;;;;;;5036158;28;20042;-79
2023/10/30 10:00:39;;;;;;;10.65;1.75;;;12.80;99.90;;;;;;5032958;28;20048;-79
2023/10/30 10:03:07;;;;;;;11.43;2.17;;;12.80;99.90;;;;;;5036348;28;20037;-79
2023/10/30 10:05:32;;;;;;;10.20;1.73;;;12.90;99.90;;;;;;5033892;28;20069;-78
2023/10/30 10:07:58;;;;;;;10.15;2.22;;;13.00;99.90;;;;;;5017618;28;20112;-79
2023/10/30 10:10:24;;;;;;;9.18;2.28;;;13.00;99.90;;;;;;5032339;28;20046;-79
2023/10/30 10:12:53;;;;;;;8.90;1.70;;;13.10;99.90;;;;;;5033654;28;20076;-79
2023/10/30 10:15:20;;;;;;;8.98;1.90;;;13.30;99.90;;;;;;5032376;28;20096;-79
2023/10/30 10:17:46;;;;;;;7.78;1.73;;;13.30;99.90;;;;;;5031763;28;20530;-79
2023/10/30 10:20:12;;;;;;;14.35;1.90;;;13.40;99.90;;;;;;5031991;28;20042;-79
2023/10/30 10:22:39;;;;;;;7.88;1.55;;;13.50;99.90;;;;;;5030677;28;20041;-78
2023/10/30 10:25:10;;;;;;;11.02;2.00;;;13.50;99.90;;;;;;5032299;28;20509;-79
2023/10/30 10:27:40;;;;;;;6.07;1.48;;;13.40;99.90;;;;;;5016659;28;20072;-78
2023/10/30 10:30:07;;;;;;;8.13;1.70;;;13.30;99.90;;;;;;5033909;28;20523;-79
2023/10/30 10:32:33;;;;;;;9.05;1.60;;;13.20;99.90;;;;;;4999542;28;20120;-79
2023/10/30 10:35:02;;;;;;;6.63;1.45;;;13.10;99.90;;;;;;5034214;28;20156;-79
2023/10/30 10:37:28;;;;;;;7.82;1.85;;;13.00;99.90;;;;;;5032756;28;20060;-78
2023/10/30 10:39:54;;;;;;;9.13;1.70;;;13.10;99.90;;;;;;5032198;28;20340;-78
2023/10/30 10:42:22;;;;;;;10.23;2.00;;;13.00;99.90;;;;;;5032492;28;20460;-78
2023/10/30 10:44:49;;;;;;;9.05;1.80;;;13.00;99.90;;;;;;5031991;28;20038;-79
2023/10/30 10:47:16;;;;;;;8.32;1.73;;;13.10;99.90;;;;;;5031346;28;20091;-79
2023/10/30 10:49:42;;;;;;;11.55;2.17;;;13.10;99.90;;;;;;5015178;28;20029;-79
2023/10/30 10:52:13;;;;;;;10.50;2.00;;;13.10;99.90;;;;;;5033455;28;20033;-80
2023/10/30 10:55:09;;;;;;;9.05;1.70;;;13.20;99.90;;;;;;5026797;28;20408;-79
2023/10/30 10:57:47;;;;;;;8.38;1.55;;;13.30;99.90;;;;;;5034684;28;20057;-79
2023/10/30 11:00:13;;;;;;;7.15;1.83;;;13.50;99.90;;;;;;5017985;28;20041;-78
2023/10/30 11:02:40;;;;;;;8.45;1.50;;;13.60;99.90;;;;;;5032236;28;20504;-78
2023/10/30 11:05:07;;;;;;;11.60;1.70;;;13.60;99.90;;;;;;5033523;28;20045;-79
2023/10/30 11:07:46;;;;;;;7.78;2.20;;;13.70;99.90;;;;;;5032147;28;20052;-79
2023/10/30 11:10:51;;;;;;;7.63;1.73;;;13.60;99.90;;;;;;5016742;28;20149;-79
2023/10/30 11:13:39;;;;;;;9.02;1.80;;;13.60;99.90;;;;;;5031522;28;20057;-78
2023/10/30 11:16:23;;;;;;;11.23;2.20;;;13.50;99.90;;;;;;5032532;28;20394;-79
2023/10/30 11:19:00;;;;;;;7.70;1.50;;;13.50;99.90;;;;;;5032916;28;20037;-79
2023/10/30 11:21:27;;;;;;;12.95;2.13;;;13.60;99.90;;;;;;5033420;28;20048;-79
2023/10/30 11:23:59;;;;;;;7.13;1.67;;;13.80;99.90;;;;;;5036350;28;20025;-79
2023/10/30 11:26:36;;;;;;;8.50;2.15;;;13.90;99.90;;;;;;5034241;28;20033;-79
2023/10/30 11:29:11;;;;;;;10.68;1.85;;;14.10;99.90;;;;;;5034772;28;20049;-80
2023/10/30 11:31:51;;;;;;;8.32;1.60;;;14.10;99.90;;;;;;5034926;28;20075;-79
2023/10/30 11:34:17;;;;;;;8.75;2.05;;;14.10;99.90;;;;;;5035149;28;20045;-80
2023/10/30 11:36:47;;;;;;;8.88;2.05;;;14.00;99.90;;;;;;5035821;28;20049;-80
2023/10/30 11:39:19;;;;;;;5.53;1.50;;;14.10;99.90;;;;;;5035121;28;20111;-79
2023/10/30 11:41:50;;;;;;;7.65;1.48;;;14.00;99.90;;;;;;5034882;28;20045;-79
2023/10/30 11:44:16;;;;;;;11.07;1.77;;;13.90;99.90;;;;;;5032534;28;20041;-79
2023/10/30 11:46:44;;;;;;;8.63;1.70;;;13.80;99.90;;;;;;5035574;28;20409;-79
2023/10/30 11:49:12;;;;;;;12.27;1.60;;;13.70;99.90;;;;;;5035280;28;20041;-79
2023/10/30 11:51:41;;;;;;;10.65;2.53;;;13.80;99.90;;;;;;5033987;28;20500;-80
2023/10/30 11:54:07;;;;;;;6.88;1.58;;;13.90;99.90;;;;;;5036280;28;20087;-79
2023/10/30 11:56:32;;;;;;;8.60;2.08;;;14.10;99.90;;;;;;5034917;28;20048;-78
2023/10/30 11:58:59;;;;;;;7.90;1.85;;;14.20;99.90;;;;;;5035016;28;20029;-79
2023/10/30 12:01:25;;;;;;;10.75;2.75;;;14.30;99.90;;;;;;5019225;28;20124;-78
2023/10/30 12:03:50;;;;;;;10.57;1.90;;;14.40;99.90;;;;;;5035120;28;20072;-80
2023/10/30 12:06:16;;;;;;;10.00;2.05;;;14.40;99.90;;;;;;5037160;28;20037;-79
2023/10/30 12:08:42;;;;;;;10.07;1.55;;;14.30;99.90;;;;;;5035977;28;20065;-79
2023/10/30 12:11:07;;;;;;;5.95;1.80;;;14.30;99.90;;;;;;5035771;28;20140;-78
2023/10/30 12:13:34;;;;;;;11.07;1.73;;;14.20;99.90;;;;;;5034033;28;20069;-79
2023/10/30 12:15:59;;;;;;;10.45;1.77;;;14.20;99.90;;;;;;5035467;28;20045;-80
2023/10/30 12:18:25;;;;;;;6.18;1.67;;;14.00;99.90;;;;;;5034565;28;20044;-79
2023/10/30 12:20:51;;;;;;;9.10;2.05;;;13.80;99.90;;;;;;5034791;28;20464;-79
2023/10/30 12:23:16;;;;;;;9.15;1.70;;;13.90;99.90;;;;;;5018717;28;20044;-79
2023/10/30 12:25:43;;;;;;;9.07;1.88;;;13.90;99.90;;;;;;5033949;28;20083;-80
2023/10/30 12:28:08;;;;;;;9.30;2.00;;;13.90;99.90;;;;;;5034363;28;20041;-79
2023/10/30 12:30:35;;;;;;;7.63;1.70;;;13.90;99.90;;;;;;5033459;28;20095;-81
2023/10/30 12:33:01;;;;;;;8.52;1.77;;;13.90;99.90;;;;;;5034103;28;20053;-80
2023/10/30 12:35:26;;;;;;;5.43;1.50;;;14.00;99.90;;;;;;5019577;28;20101;-79
2023/10/30 12:37:52;;;;;;;6.25;1.52;;;14.10;99.90;;;;;;5016100;28;20044;-79
2023/10/30 12:40:18;;;;;;;7.55;1.67;;;14.10;99.90;;;;;;5033638;28;20124;-79
2023/10/30 12:42:48;;;;;;;5.75;1.60;;;14.10;99.90;;;;;;5036030;28;20448;-80
2023/10/30 12:45:19;;;;;;;10.32;1.80;;;14.20;99.90;;;;;;5034744;28;20041;-79
2023/10/30 12:47:46;;;;;;;9.70;2.30;;;14.10;99.90;;;;;;5035291;28;20095;-80